KHZL

Hazleton Regional Airport

Hazleton, Pennsylvania, USA
METAR KHZL 230755Z AUTO 11006KT 10SM OVC005 00/00 A3056 RMK AO2
Observed Flight Rules
Feb-23 @ 07:55 UTC (14 minutes ago) Instrument Flight Rules
Wind Visibility Clouds
110° at 6 knots 10 miles
  • Overcast at 500' AGL
Temperatures Readings
Current 0°C / 32°F
Dewpoint 0°C / 32°F
Humidity 100%
Altimeter 30.56" Hg
Pressure 1035 hPa
Elevation 489
METAR KHZL 230755Z AUTO 11006KT 10SM OVC005 00/00 A3056 RMK AO2
Observed Flight Rules
Feb-23 @ 07:55 UTC
(14 minutes ago)
IFR
Wind Visibility
110° at 6 knots 10 miles
Clouds
  • Overcast at 500' AGL
Temperature Dewpoint
0°C / 32°F 0°C / 32°F
Humidity Altimeter Pressure
100% 30.56" Hg 1035 hPa